sensor_id;sensor_type;location;lat;lon;timestamp;pressure;altitude;pressure_sealevel;temperature;humidity
25855;BME280;13680;49.936;11.344;2023-04-21T00:01:44;96426.44;;;10.64;73.29
25855;BME280;13680;49.936;11.344;2023-04-21T00:04:10;96427.56;;;10.41;74.21
25855;BME280;13680;49.936;11.344;2023-04-21T00:06:39;96425.91;;;10.31;74.73
25855;BME280;13680;49.936;11.344;2023-04-21T00:09:06;96432.88;;;10.55;73.41
25855;BME280;13680;49.936;11.344;2023-04-21T00:11:32;96428.63;;;10.62;73.08
25855;BME280;13680;49.936;11.344;2023-04-21T00:13:57;96427.81;;;10.53;73.89
25855;BME280;13680;49.936;11.344;2023-04-21T00:16:22;96431.19;;;10.68;72.95
25855;BME280;13680;49.936;11.344;2023-04-21T00:18:48;96434.00;;;10.85;72.03
25855;BME280;13680;49.936;11.344;2023-04-21T00:21:13;96435.72;;;10.81;72.26
25855;BME280;13680;49.936;11.344;2023-04-21T00:23:38;96424.78;;;10.77;71.86
25855;BME280;13680;49.936;11.344;2023-04-21T00:26:04;96426.44;;;10.64;72.65
25855;BME280;13680;49.936;11.344;2023-04-21T00:28:29;96428.47;;;10.90;71.93
25855;BME280;13680;49.936;11.344;2023-04-21T00:30:55;96430.56;;;11.02;71.54
25855;BME280;13680;49.936;11.344;2023-04-21T00:33:20;96428.34;;;10.95;71.09
25855;BME280;13680;49.936;11.344;2023-04-21T00:35:46;96432.16;;;11.03;70.99
25855;BME280;13680;49.936;11.344;2023-04-21T00:38:11;96426.69;;;10.77;72.22
25855;BME280;13680;49.936;11.344;2023-04-21T00:40:36;96425.03;;;10.99;70.88
25855;BME280;13680;49.936;11.344;2023-04-21T00:43:05;96421.91;;;10.74;72.20
25855;BME280;13680;49.936;11.344;2023-04-21T00:45:30;96436.28;;;10.69;72.43
25855;BME280;13680;49.936;11.344;2023-04-21T00:47:56;96427.06;;;10.93;71.37
25855;BME280;13680;49.936;11.344;2023-04-21T00:50:21;96424.78;;;10.77;72.26
25855;BME280;13680;49.936;11.344;2023-04-21T00:52:47;96424.81;;;10.86;71.63
25855;BME280;13680;49.936;11.344;2023-04-21T00:55:13;96421.44;;;10.72;72.05
25855;BME280;13680;49.936;11.344;2023-04-21T00:57:38;96417.97;;;10.80;71.97
25855;BME280;13680;49.936;11.344;2023-04-21T01:00:04;96430.28;;;11.04;71.06
25855;BME280;13680;49.936;11.344;2023-04-21T01:02:30;96428.75;;;10.80;71.65
25855;BME280;13680;49.936;11.344;2023-04-21T01:04:56;96431.38;;;10.71;72.56
25855;BME280;13680;49.936;11.344;2023-04-21T01:07:24;96421.81;;;10.88;71.59
25855;BME280;13680;49.936;11.344;2023-04-21T01:09:49;96424.97;;;10.58;72.83
25855;BME280;13680;49.936;11.344;2023-04-21T01:12:14;96422.59;;;10.57;72.96
25855;BME280;13680;49.936;11.344;2023-04-21T01:14:40;96426.34;;;10.47;73.56
25855;BME280;13680;49.936;11.344;2023-04-21T01:17:06;96420.19;;;10.78;72.55
25855;BME280;13680;49.936;11.344;2023-04-21T01:19:34;96420.38;;;10.50;73.15
25855;BME280;13680;49.936;11.344;2023-04-21T01:22:01;96420.69;;;10.57;73.12
25855;BME280;13680;49.936;11.344;2023-04-21T01:24:42;96422.06;;;10.46;74.34
25855;BME280;13680;49.936;11.344;2023-04-21T01:27:15;96424.84;;;10.63;72.94
25855;BME280;13680;49.936;11.344;2023-04-21T01:29:42;96415.59;;;10.47;73.79
25855;BME280;13680;49.936;11.344;2023-04-21T01:32:10;96413.13;;;10.59;73.44
25855;BME280;13680;49.936;11.344;2023-04-21T01:34:36;96408.06;;;10.58;73.30
25855;BME280;13680;49.936;11.344;2023-04-21T01:37:02;96411.41;;;10.63;72.66
25855;BME280;13680;49.936;11.344;2023-04-21T01:39:27;96411.47;;;10.50;73.92
25855;BME280;13680;49.936;11.344;2023-04-21T01:41:53;96420.00;;;10.43;73.87
25855;BME280;13680;49.936;11.344;2023-04-21T01:44:20;96417.53;;;10.55;73.76
25855;BME280;13680;49.936;11.344;2023-04-21T01:46:45;96411.53;;;10.58;73.28
25855;BME280;13680;49.936;11.344;2023-04-21T01:49:10;96410.88;;;10.53;73.36
25855;BME280;13680;49.936;11.344;2023-04-21T01:51:36;96419.50;;;10.41;73.88
25855;BME280;13680;49.936;11.344;2023-04-21T01:54:01;96417.34;;;10.52;73.45
25855;BME280;13680;49.936;11.344;2023-04-21T01:56:26;96423.47;;;10.43;74.02
25855;BME280;13680;49.936;11.344;2023-04-21T01:58:51;96425.25;;;10.48;73.53
25855;BME280;13680;49.936;11.344;2023-04-21T02:01:17;96428.03;;;10.20;75.38
25855;BME280;13680;49.936;11.344;2023-04-21T02:03:42;96425.09;;;10.30;74.94
25855;BME280;13680;49.936;11.344;2023-04-21T02:06:08;96431.47;;;10.35;74.90
25855;BME280;13680;49.936;11.344;2023-04-21T02:08:33;96432.22;;;10.49;73.77
25855;BME280;13680;49.936;11.344;2023-04-21T02:11:00;96428.63;;;10.17;75.36
25855;BME280;13680;49.936;11.344;2023-04-21T02:13:25;96419.63;;;10.36;74.94
25855;BME280;13680;49.936;11.344;2023-04-21T02:15:51;96422.28;;;10.13;75.78
25855;BME280;13680;49.936;11.344;2023-04-21T02:18:16;96428.78;;;10.35;75.17
25855;BME280;13680;49.936;11.344;2023-04-21T02:20:42;96432.06;;;10.31;75.11
25855;BME280;13680;49.936;11.344;2023-04-21T02:23:07;96422.41;;;10.30;74.68
25855;BME280;13680;49.936;11.344;2023-04-21T02:25:32;96429.19;;;10.28;75.33
25855;BME280;13680;49.936;11.344;2023-04-21T02:27:58;96429.00;;;10.24;75.35
25855;BME280;13680;49.936;11.344;2023-04-21T02:30:23;96419.84;;;10.25;75.24
25855;BME280;13680;49.936;11.344;2023-04-21T02:32:48;96431.19;;;10.22;75.93
25855;BME280;13680;49.936;11.344;2023-04-21T02:35:14;96426.41;;;10.19;76.28
25855;BME280;13680;49.936;11.344;2023-04-21T02:37:39;96426.34;;;10.47;74.67
25855;BME280;13680;49.936;11.344;2023-04-21T02:40:05;96440.28;;;10.49;74.90
25855;BME280;13680;49.936;11.344;2023-04-21T02:42:32;96434.06;;;10.40;74.80
25855;BME280;13680;49.936;11.344;2023-04-21T02:44:58;96427.56;;;10.41;75.15
25855;BME280;13680;49.936;11.344;2023-04-21T02:47:23;96429.97;;;10.42;75.10
25855;BME280;13680;49.936;11.344;2023-04-21T02:49:48;96437.09;;;10.47;73.72
25855;BME280;13680;49.936;11.344;2023-04-21T02:52:13;96428.53;;;10.22;75.68
25855;BME280;13680;49.936;11.344;2023-04-21T02:54:39;96429.50;;;10.26;75.83
25855;BME280;13680;49.936;11.344;2023-04-21T02:57:05;96436.34;;;10.32;74.95
25855;BME280;13680;49.936;11.344;2023-04-21T02:59:30;96427.16;;;10.47;74.36
25855;BME280;13680;49.936;11.344;2023-04-21T03:01:55;96418.41;;;10.42;74.95
25855;BME280;13680;49.936;11.344;2023-04-21T03:04:21;96428.81;;;10.21;75.35
25855;BME280;13680;49.936;11.344;2023-04-21T03:06:48;96424.34;;;10.16;76.09
25855;BME280;13680;49.936;11.344;2023-04-21T03:09:13;96422.19;;;10.18;76.23
25855;BME280;13680;49.936;11.344;2023-04-21T03:11:39;96423.84;;;10.14;76.28
25855;BME280;13680;49.936;11.344;2023-04-21T03:14:04;96426.59;;;10.37;75.29
25855;BME280;13680;49.936;11.344;2023-04-21T03:16:29;96425.50;;;10.38;74.97
25855;BME280;13680;49.936;11.344;2023-04-21T03:18:55;96412.03;;;10.15;75.92
25855;BME280;13680;49.936;11.344;2023-04-21T03:21:20;96414.25;;;10.36;75.34
25855;BME280;13680;49.936;11.344;2023-04-21T03:23:46;96424.22;;;9.98;76.75
25855;BME280;13680;49.936;11.344;2023-04-21T03:26:11;96403.81;;;9.97;77.09
25855;BME280;13680;49.936;11.344;2023-04-21T03:28:36;96418.13;;;10.07;76.97
25855;BME280;13680;49.936;11.344;2023-04-21T03:31:02;96409.25;;;10.06;76.15
25855;BME280;13680;49.936;11.344;2023-04-21T03:33:27;96409.94;;;10.12;76.23
25855;BME280;13680;49.936;11.344;2023-04-21T03:35:52;96409.16;;;9.89;77.35
25855;BME280;13680;49.936;11.344;2023-04-21T03:38:18;96408.56;;;10.14;76.49
25855;BME280;13680;49.936;11.344;2023-04-21T03:40:43;96409.13;;;10.11;76.00
25855;BME280;13680;49.936;11.344;2023-04-21T03:43:08;96396.38;;;9.94;76.74
25855;BME280;13680;49.936;11.344;2023-04-21T03:45:34;96405.09;;;10.00;76.46
25855;BME280;13680;49.936;11.344;2023-04-21T03:48:00;96408.16;;;10.07;76.60
25855;BME280;13680;49.936;11.344;2023-04-21T03:50:25;96410.00;;;9.98;77.26
25855;BME280;13680;49.936;11.344;2023-04-21T03:52:50;96409.19;;;9.97;76.87
25855;BME280;13680;49.936;11.344;2023-04-21T03:55:16;96413.47;;;9.98;76.85
25855;BME280;13680;49.936;11.344;2023-04-21T03:57:41;96419.16;;;9.97;77.24
25855;BME280;13680;49.936;11.344;2023-04-21T04:00:08;96416.53;;;10.06;76.32
25855;BME280;13680;49.936;11.344;2023-04-21T04:02:35;96415.19;;;9.94;77.28
25855;BME280;13680;49.936;11.344;2023-04-21T04:05:04;96407.63;;;9.96;77.09
25855;BME280;13680;49.936;11.344;2023-04-21T04:07:31;96413.03;;;9.82;78.23
25855;BME280;13680;49.936;11.344;2023-04-21T04:09:57;96411.03;;;10.11;76.80
25855;BME280;13680;49.936;11.344;2023-04-21T04:12:22;96411.59;;;9.99;76.32
25855;BME280;13680;49.936;11.344;2023-04-21T04:14:47;96405.91;;;10.01;77.14
25855;BME280;13680;49.936;11.344;2023-04-21T04:17:12;96398.81;;;10.05;76.73
25855;BME280;13680;49.936;11.344;2023-04-21T04:19:38;96407.31;;;9.98;76.72
25855;BME280;13680;49.936;11.344;2023-04-21T04:22:03;96411.91;;;10.20;75.89
25855;BME280;13680;49.936;11.344;2023-04-21T04:24:31;96406.53;;;10.20;75.64
25855;BME280;13680;49.936;11.344;2023-04-21T04:26:57;96418.00;;;10.12;76.08
25855;BME280;13680;49.936;11.344;2023-04-21T04:29:24;96412.09;;;10.24;76.22
25855;BME280;13680;49.936;11.344;2023-04-21T04:31:50;96410.56;;;10.31;75.35
25855;BME280;13680;49.936;11.344;2023-04-21T04:34:15;96427.56;;;10.41;74.77
25855;BME280;13680;49.936;11.344;2023-04-21T04:36:41;96417.97;;;9.89;76.75
25855;BME280;13680;49.936;11.344;2023-04-21T04:39:07;96416.19;;;10.21;75.35
25855;BME280;13680;49.936;11.344;2023-04-21T04:41:34;96422.53;;;10.25;75.17
25855;BME280;13680;49.936;11.344;2023-04-21T04:44:00;96427.03;;;10.16;76.18
25855;BME280;13680;49.936;11.344;2023-04-21T04:46:29;96429.78;;;10.39;74.86
25855;BME280;13680;49.936;11.344;2023-04-21T04:48:54;96437.97;;;10.56;74.66
25855;BME280;13680;49.936;11.344;2023-04-21T04:51:20;96446.63;;;10.53;74.32
25855;BME280;13680;49.936;11.344;2023-04-21T04:53:45;96437.88;;;9.88;76.26
25855;BME280;13680;49.936;11.344;2023-04-21T04:56:10;96450.00;;;10.22;76.69
25855;BME280;13680;49.936;11.344;2023-04-21T04:58:36;96439.69;;;10.15;76.61
25855;BME280;13680;49.936;11.344;2023-04-21T05:01:14;96438.94;;;10.38;75.25
25855;BME280;13680;49.936;11.344;2023-04-21T05:03:41;96446.19;;;10.60;73.98
25855;BME280;13680;49.936;11.344;2023-04-21T05:06:06;96455.38;;;10.59;74.50
25855;BME280;13680;49.936;11.344;2023-04-21T05:08:32;96453.03;;;10.43;75.10
25855;BME280;13680;49.936;11.344;2023-04-21T05:10:57;96456.16;;;10.59;73.79
25855;BME280;13680;49.936;11.344;2023-04-21T05:13:23;96442.84;;;10.54;74.28
25855;BME280;13680;49.936;11.344;2023-04-21T05:15:48;96445.00;;;10.75;73.86
25855;BME280;13680;49.936;11.344;2023-04-21T05:18:13;96443.59;;;10.77;72.84
25855;BME280;13680;49.936;11.344;2023-04-21T05:20:41;96443.22;;;10.39;74.87
25855;BME280;13680;49.936;11.344;2023-04-21T05:23:07;96445.44;;;10.23;76.21
25855;BME280;13680;49.936;11.344;2023-04-21T05:25:32;96452.63;;;10.50;74.95
25855;BME280;13680;49.936;11.344;2023-04-21T05:27:58;96446.06;;;10.65;73.79
25855;BME280;13680;49.936;11.344;2023-04-21T05:30:23;96450.41;;;10.52;74.36
25855;BME280;13680;49.936;11.344;2023-04-21T05:32:49;96444.50;;;10.64;74.35
25855;BME280;13680;49.936;11.344;2023-04-21T05:35:14;96447.34;;;10.68;74.19
25855;BME280;13680;49.936;11.344;2023-04-21T05:37:40;96443.72;;;10.72;74.06
25855;BME280;13680;49.936;11.344;2023-04-21T05:40:05;96441.88;;;10.50;74.58
25855;BME280;13680;49.936;11.344;2023-04-21T05:42:30;96441.56;;;10.52;74.22
25855;BME280;13680;49.936;11.344;2023-04-21T05:44:56;96439.16;;;10.27;75.39
25855;BME280;13680;49.936;11.344;2023-04-21T05:47:22;96445.44;;;10.23;75.62
25855;BME280;13680;49.936;11.344;2023-04-21T05:49:50;96438.78;;;10.20;75.57
25855;BME280;13680;49.936;11.344;2023-04-21T05:52:17;96439.00;;;10.10;76.47
25855;BME280;13680;49.936;11.344;2023-04-21T05:54:43;96437.84;;;10.39;75.25
25855;BME280;13680;49.936;11.344;2023-04-21T05:57:08;96441.63;;;10.24;75.71
25855;BME280;13680;49.936;11.344;2023-04-21T05:59:33;96441.25;;;10.53;74.81
25855;BME280;13680;49.936;11.344;2023-04-21T06:01:58;96440.69;;;10.65;73.95
25855;BME280;13680;49.936;11.344;2023-04-21T06:04:24;96439.59;;;10.66;73.81
25855;BME280;13680;49.936;11.344;2023-04-21T06:06:49;96442.63;;;10.73;73.40
25855;BME280;13680;49.936;11.344;2023-04-21T06:09:15;96445.94;;;10.70;73.54
25855;BME280;13680;49.936;11.344;2023-04-21T06:11:40;96450.66;;;10.96;72.90
25855;BME280;13680;49.936;11.344;2023-04-21T06:14:06;96447.81;;;10.92;72.96
25855;BME280;13680;49.936;11.344;2023-04-21T06:16:31;96454.50;;;11.04;72.31
25855;BME280;13680;49.936;11.344;2023-04-21T06:18:58;96451.41;;;11.19;71.39
25855;BME280;13680;49.936;11.344;2023-04-21T06:21:24;96454.22;;;11.14;72.12
25855;BME280;13680;49.936;11.344;2023-04-21T06:23:49;96441.94;;;11.30;71.23
25855;BME280;13680;49.936;11.344;2023-04-21T06:26:14;96452.13;;;11.42;70.67
25855;BME280;13680;49.936;11.344;2023-04-21T06:28:39;96451.91;;;11.30;70.86
25855;BME280;13680;49.936;11.344;2023-04-21T06:31:05;96453.75;;;11.61;70.07
25855;BME280;13680;49.936;11.344;2023-04-21T06:33:31;96453.94;;;11.82;69.37
25855;BME280;13680;49.936;11.344;2023-04-21T06:35:56;96452.84;;;11.83;69.50
25855;BME280;13680;49.936;11.344;2023-04-21T06:38:21;96453.22;;;12.25;67.78
25855;BME280;13680;49.936;11.344;2023-04-21T06:40:47;96452.59;;;12.11;67.41
25855;BME280;13680;49.936;11.344;2023-04-21T06:43:13;96449.41;;;12.00;68.02
25855;BME280;13680;49.936;11.344;2023-04-21T06:45:38;96455.91;;;12.25;67.33
25855;BME280;13680;49.936;11.344;2023-04-21T06:48:04;96442.09;;;12.53;66.23
25855;BME280;13680;49.936;11.344;2023-04-21T06:50:29;96452.69;;;12.76;65.67
25855;BME280;13680;49.936;11.344;2023-04-21T06:52:54;96450.19;;;12.62;66.52
25855;BME280;13680;49.936;11.344;2023-04-21T06:55:20;96449.34;;;12.70;65.39
25855;BME280;13680;49.936;11.344;2023-04-21T06:57:45;96456.81;;;12.82;65.07
25855;BME280;13680;49.936;11.344;2023-04-21T07:00:11;96441.03;;;13.02;64.38
25855;BME280;13680;49.936;11.344;2023-04-21T07:02:36;96439.09;;;13.11;64.09
25855;BME280;13680;49.936;11.344;2023-04-21T07:05:02;96430.44;;;13.65;63.01
25855;BME280;13680;49.936;11.344;2023-04-21T07:07:27;96437.72;;;13.95;62.74
25855;BME280;13680;49.936;11.344;2023-04-21T07:09:53;96431.22;;;13.36;62.49
25855;BME280;13680;49.936;11.344;2023-04-21T07:12:18;96445.28;;;13.12;63.95
25855;BME280;13680;49.936;11.344;2023-04-21T07:14:44;96443.06;;;13.52;62.65
25855;BME280;13680;49.936;11.344;2023-04-21T07:17:09;96439.31;;;13.36;63.52
25855;BME280;13680;49.936;11.344;2023-04-21T07:19:34;96460.13;;;12.79;64.15
25855;BME280;13680;49.936;11.344;2023-04-21T07:22:01;96443.94;;;13.26;63.21
25855;BME280;13680;49.936;11.344;2023-04-21T07:24:26;96445.00;;;13.43;62.19
25855;BME280;13680;49.936;11.344;2023-04-21T07:26:51;96435.56;;;13.58;62.02
25855;BME280;13680;49.936;11.344;2023-04-21T07:29:17;96436.06;;;13.81;61.55
25855;BME280;13680;49.936;11.344;2023-04-21T07:31:42;96430.34;;;14.59;59.88
25855;BME280;13680;49.936;11.344;2023-04-21T07:34:07;96431.34;;;14.54;58.99
25855;BME280;13680;49.936;11.344;2023-04-21T07:36:33;96436.41;;;14.77;59.16
25855;BME280;13680;49.936;11.344;2023-04-21T07:38:58;96425.16;;;14.53;58.52
25855;BME280;13680;49.936;11.344;2023-04-21T07:41:23;96420.19;;;14.89;58.39
25855;BME280;13680;49.936;11.344;2023-04-21T07:43:48;96424.63;;;15.55;57.13
25855;BME280;13680;49.936;11.344;2023-04-21T07:46:14;96428.94;;;15.19;56.93
25855;BME280;13680;49.936;11.344;2023-04-21T07:48:39;96419.44;;;15.38;57.47
25855;BME280;13680;49.936;11.344;2023-04-21T07:51:05;96422.38;;;15.58;56.80
25855;BME280;13680;49.936;11.344;2023-04-21T07:53:31;96427.34;;;15.68;55.35
25855;BME280;13680;49.936;11.344;2023-04-21T07:55:56;96422.84;;;15.22;56.57
25855;BME280;13680;49.936;11.344;2023-04-21T07:58:21;96426.75;;;15.99;55.30
25855;BME280;13680;49.936;11.344;2023-04-21T08:00:47;96418.09;;;15.81;55.18
25855;BME280;13680;49.936;11.344;2023-04-21T08:03:13;96421.38;;;15.87;55.15
25855;BME280;13680;49.936;11.344;2023-04-21T08:05:39;96417.50;;;16.29;53.88
25855;BME280;13680;49.936;11.344;2023-04-21T08:08:05;96425.69;;;16.73;53.41
25855;BME280;13680;49.936;11.344;2023-04-21T08:10:31;96425.94;;;16.11;53.80
25855;BME280;13680;49.936;11.344;2023-04-21T08:12:57;96425.84;;;15.95;54.43
25855;BME280;13680;49.936;11.344;2023-04-21T08:15:22;96423.28;;;15.86;53.64
25855;BME280;13680;49.936;11.344;2023-04-21T08:17:47;96421.06;;;16.17;53.75
25855;BME280;13680;49.936;11.344;2023-04-21T08:20:13;96420.06;;;16.66;52.34
25855;BME280;13680;49.936;11.344;2023-04-21T08:22:38;96424.72;;;16.37;52.43
25855;BME280;13680;49.936;11.344;2023-04-21T08:25:04;96426.00;;;16.27;52.49
25855;BME280;13680;49.936;11.344;2023-04-21T08:27:29;96410.81;;;16.39;51.90
25855;BME280;13680;49.936;11.344;2023-04-21T08:29:55;96414.97;;;16.08;54.60
25855;BME280;13680;49.936;11.344;2023-04-21T08:32:20;96425.06;;;16.80;51.00
25855;BME280;13680;49.936;11.344;2023-04-21T08:34:51;96418.50;;;16.81;51.05
25855;BME280;13680;49.936;11.344;2023-04-21T08:37:17;96415.03;;;17.44;48.87
25855;BME280;13680;49.936;11.344;2023-04-21T08:39:43;96410.31;;;17.41;49.96
25855;BME280;13680;49.936;11.344;2023-04-21T08:42:08;96410.16;;;17.34;50.07
25855;BME280;13680;49.936;11.344;2023-04-21T08:44:34;96418.34;;;17.54;49.99
25855;BME280;13680;49.936;11.344;2023-04-21T08:47:00;96418.16;;;17.78;49.45
25855;BME280;13680;49.936;11.344;2023-04-21T08:49:28;96413.34;;;18.07;49.99
25855;BME280;13680;49.936;11.344;2023-04-21T08:51:53;96415.03;;;17.96;47.71
25855;BME280;13680;49.936;11.344;2023-04-21T08:54:19;96412.41;;;17.99;48.79
25855;BME280;13680;49.936;11.344;2023-04-21T08:56:46;96410.28;;;18.28;48.24
25855;BME280;13680;49.936;11.344;2023-04-21T08:59:12;96416.03;;;17.88;48.08
25855;BME280;13680;49.936;11.344;2023-04-21T09:02:06;96419.06;;;18.22;47.42
25855;BME280;13680;49.936;11.344;2023-04-21T09:04:32;96410.25;;;17.73;47.62
25855;BME280;13680;49.936;11.344;2023-04-21T09:06:57;96412.16;;;17.53;49.10
25855;BME280;13680;49.936;11.344;2023-04-21T09:09:23;96411.50;;;18.31;47.82
25855;BME280;13680;49.936;11.344;2023-04-21T09:11:55;96411.97;;;18.37;46.13
25855;BME280;13680;49.936;11.344;2023-04-21T09:14:33;96414.41;;;18.42;46.18
25855;BME280;13680;49.936;11.344;2023-04-21T09:17:03;96398.41;;;18.79;45.73
25855;BME280;13680;49.936;11.344;2023-04-21T09:19:29;96402.78;;;19.30;45.57
25855;BME280;13680;49.936;11.344;2023-04-21T09:21:59;96399.78;;;19.12;44.82
25855;BME280;13680;49.936;11.344;2023-04-21T09:24:24;96393.72;;;19.50;44.57
25855;BME280;13680;49.936;11.344;2023-04-21T09:26:50;96391.06;;;19.30;44.94
25855;BME280;13680;49.936;11.344;2023-04-21T09:29:16;96398.50;;;18.87;45.02
25855;BME280;13680;49.936;11.344;2023-04-21T09:31:43;96391.34;;;19.21;45.29
25855;BME280;13680;49.936;11.344;2023-04-21T09:34:18;96392.56;;;20.04;45.07
25855;BME280;13680;49.936;11.344;2023-04-21T09:36:44;96391.91;;;19.57;43.73
25855;BME280;13680;49.936;11.344;2023-04-21T09:39:10;96405.91;;;19.56;43.64
25855;BME280;13680;49.936;11.344;2023-04-21T09:41:36;96397.91;;;19.70;42.97
25855;BME280;13680;49.936;11.344;2023-04-21T09:44:01;96399.31;;;19.60;43.99
25855;BME280;13680;49.936;11.344;2023-04-21T09:46:31;96399.50;;;19.98;44.04
25855;BME280;13680;49.936;11.344;2023-04-21T09:48:59;96400.97;;;19.92;43.48
25855;BME280;13680;49.936;11.344;2023-04-21T09:51:25;96396.38;;;20.30;45.60
25855;BME280;13680;49.936;11.344;2023-04-21T09:53:53;96397.06;;;20.57;44.41
25855;BME280;13680;49.936;11.344;2023-04-21T09:56:24;96399.78;;;19.89;42.76
25855;BME280;13680;49.936;11.344;2023-04-21T09:58:54;96400.38;;;20.40;44.31
25855;BME280;13680;49.936;11.344;2023-04-21T10:01:23;96393.59;;;20.26;42.38
25855;BME280;13680;49.936;11.344;2023-04-21T10:03:51;96397.66;;;20.40;41.41
25855;BME280;13680;49.936;11.344;2023-04-21T10:06:18;96398.47;;;20.74;40.40
25855;BME280;13680;49.936;11.344;2023-04-21T10:08:43;96396.13;;;20.42;41.89
25855;BME280;13680;49.936;11.344;2023-04-21T10:11:10;96392.31;;;20.17;42.94
25855;BME280;13680;49.936;11.344;2023-04-21T10:13:37;96380.13;;;20.10;42.85
25855;BME280;13680;49.936;11.344;2023-04-21T10:16:15;96384.28;;;19.70;42.38
25855;BME280;13680;49.936;11.344;2023-04-21T10:18:43;96386.72;;;20.06;42.45
25855;BME280;13680;49.936;11.344;2023-04-21T10:21:16;96378.44;;;19.72;43.41
25855;BME280;13680;49.936;11.344;2023-04-21T10:23:45;96375.78;;;19.75;43.65
25855;BME280;13680;49.936;11.344;2023-04-21T10:26:16;96363.44;;;20.87;42.42
25855;BME280;13680;49.936;11.344;2023-04-21T10:34:12;96356.09;;;22.17;39.15
25855;BME280;13680;49.936;11.344;2023-04-21T10:39:09;96351.41;;;22.25;40.96
25855;BME280;13680;49.936;11.344;2023-04-21T10:41:42;96357.63;;;22.11;39.78
25855;BME280;13680;49.936;11.344;2023-04-21T10:46:38;96346.72;;;22.29;39.78
25855;BME280;13680;49.936;11.344;2023-04-21T10:49:21;96338.97;;;22.46;40.07
25855;BME280;13680;49.936;11.344;2023-04-21T10:54:23;96334.31;;;22.57;39.43
25855;BME280;13680;49.936;11.344;2023-04-21T10:56:57;96340.03;;;22.19;39.19
25855;BME280;13680;49.936;11.344;2023-04-21T10:59:24;96337.44;;;22.59;37.68
25855;BME280;13680;49.936;11.344;2023-04-21T11:01:50;96341.22;;;22.22;39.20
25855;BME280;13680;49.936;11.344;2023-04-21T11:04:17;96348.59;;;22.03;39.86
25855;BME280;13680;49.936;11.344;2023-04-21T11:06:47;96339.00;;;22.60;38.05
25855;BME280;13680;49.936;11.344;2023-04-21T11:09:29;96335.53;;;23.17;38.20
25855;BME280;13680;49.936;11.344;2023-04-21T11:11:58;96324.13;;;22.65;37.30
25855;BME280;13680;49.936;11.344;2023-04-21T11:14:23;96339.53;;;21.88;38.92
25855;BME280;13680;49.936;11.344;2023-04-21T11:16:49;96331.91;;;22.37;39.14
25855;BME280;13680;49.936;11.344;2023-04-21T11:19:14;96327.28;;;22.99;37.51
25855;BME280;13680;49.936;11.344;2023-04-21T11:21:39;96329.63;;;22.83;36.66
25855;BME280;13680;49.936;11.344;2023-04-21T11:24:07;96323.38;;;23.11;36.38
25855;BME280;13680;49.936;11.344;2023-04-21T11:26:35;96317.88;;;22.89;37.18
25855;BME280;13680;49.936;11.344;2023-04-21T11:29:06;96310.41;;;23.48;36.14
25855;BME280;13680;49.936;11.344;2023-04-21T11:31:33;96323.72;;;22.59;37.08
25855;BME280;13680;49.936;11.344;2023-04-21T11:33:59;96324.53;;;22.92;36.76
25855;BME280;13680;49.936;11.344;2023-04-21T11:36:25;96326.50;;;23.28;35.03
25855;BME280;13680;49.936;11.344;2023-04-21T11:38:51;96322.97;;;23.45;34.83
25855;BME280;13680;49.936;11.344;2023-04-21T11:41:21;96318.25;;;23.53;36.40
25855;BME280;13680;49.936;11.344;2023-04-21T11:43:47;96317.38;;;23.85;34.97
25855;BME280;13680;49.936;11.344;2023-04-21T11:46:31;96305.75;;;23.30;35.19
25855;BME280;13680;49.936;11.344;2023-04-21T11:49:10;96309.16;;;23.92;34.01
25855;BME280;13680;49.936;11.344;2023-04-21T11:51:37;96298.72;;;24.32;33.89
25855;BME280;13680;49.936;11.344;2023-04-21T11:54:05;96298.69;;;24.43;32.50
25855;BME280;13680;49.936;11.344;2023-04-21T11:56:35;96306.38;;;23.85;31.96
25855;BME280;13680;49.936;11.344;2023-04-21T11:59:08;96312.75;;;23.60;33.33
25855;BME280;13680;49.936;11.344;2023-04-21T12:01:42;96310.81;;;23.43;33.62
25855;BME280;13680;49.936;11.344;2023-04-21T12:04:12;96317.03;;;23.61;32.37
25855;BME280;13680;49.936;11.344;2023-04-21T12:06:38;96310.41;;;23.55;32.70
25855;BME280;13680;49.936;11.344;2023-04-21T12:09:03;96304.56;;;23.24;32.30
25855;BME280;13680;49.936;11.344;2023-04-21T12:11:30;96321.03;;;22.74;33.82
25855;BME280;13680;49.936;11.344;2023-04-21T12:13:56;96306.91;;;23.29;33.03
25855;BME280;13680;49.936;11.344;2023-04-21T12:16:27;96309.66;;;22.68;32.92
25855;BME280;13680;49.936;11.344;2023-04-21T12:18:53;96306.44;;;22.33;33.28
25855;BME280;13680;49.936;11.344;2023-04-21T12:21:18;96302.22;;;22.83;33.44
25855;BME280;13680;49.936;11.344;2023-04-21T12:23:44;96310.47;;;23.33;35.27
25855;BME280;13680;49.936;11.344;2023-04-21T12:26:10;96307.97;;;23.79;33.60
25855;BME280;13680;49.936;11.344;2023-04-21T12:28:37;96314.88;;;24.23;32.99
25855;BME280;13680;49.936;11.344;2023-04-21T12:31:02;96301.34;;;25.10;32.97
25855;BME280;13680;49.936;11.344;2023-04-21T12:33:28;96297.41;;;24.55;32.15
25855;BME280;13680;49.936;11.344;2023-04-21T12:35:53;96289.06;;;24.73;31.55
25855;BME280;13680;49.936;11.344;2023-04-21T12:38:18;96286.53;;;24.97;31.51
25855;BME280;13680;49.936;11.344;2023-04-21T12:40:43;96286.91;;;25.79;30.25
25855;BME280;13680;49.936;11.344;2023-04-21T12:43:09;96283.31;;;25.82;31.32
25855;BME280;13680;49.936;11.344;2023-04-21T12:45:34;96293.41;;;25.92;30.15
25855;BME280;13680;49.936;11.344;2023-04-21T12:48:00;96285.97;;;25.58;29.59
25855;BME280;13680;49.936;11.344;2023-04-21T12:50:25;96293.28;;;25.30;30.22
25855;BME280;13680;49.936;11.344;2023-04-21T12:52:51;96290.88;;;25.40;30.10
25855;BME280;13680;49.936;11.344;2023-04-21T12:55:20;96277.47;;;26.11;29.73
25855;BME280;13680;49.936;11.344;2023-04-21T12:57:45;96271.31;;;26.00;30.39
25855;BME280;13680;49.936;11.344;2023-04-21T13:00:11;96267.34;;;27.10;29.34